Welcome to Northern Hawkes Bay. New Zealand.
PWS Header
      nz Flag



Hit Counter


W3C Valid W3C Valid logo


    Wairoa

Select any of the Stations below to visit their websites.










Historic Data from Weather Underground
Select the location of interest below. Wairoa is the default. Please have patience, this Data is slow to load in.
Northern Hawkes Bay Historical Data
Daily Summary for May 9, 2017 Units:  Metric    English   Both
« Previous Day
Next Day »
Daily Weekly Monthly Yearly Custom
  High: Low: Average:
Temperature: 25.3 °C 5.5 °C 13.3 °C
Dew Point: 11.7 °C 5.3 °C 8.8 °C
Humidity: 99% 38% 78%
Wind Speed: 13.4km/h 0.0km/h 4.3km/h
Wind Gust: 19.5km/h - -
Wind- - WNW
Pressure: 1026.6 hPa 1023.9 hPa -
Precipitation: 0.0 mm    
Historical Graphs
 
 
Tabular Data for May 9, 2017
Time Temperature Dew Point Pressure Wind Wind Speed Wind Gust Humidity Rainfall Rate (Hourly) solar
00:04 7.9 °C 7.2 °C 1026.0 hPa NNW 5.0 km/h 13.4 km/h 95% 0.0 mm 0 W/m2
00:09 7.9 °C 7.2 °C 1025.6 hPa NNW 5.0 km/h 13.4 km/h 95% 0.0 mm 0 W/m2
00:14 7.9 °C 7.3 °C 1025.6 hPa NNW 6.1 km/h 12.2 km/h 96% 0.0 mm 0 W/m2
00:19 8.0 °C 7.2 °C 1026.0 hPa NNW 6.1 km/h 12.2 km/h 95% 0.0 mm 0 W/m2
00:24 7.9 °C 7.2 °C 1026.0 hPa NNW 9.7 km/h 12.2 km/h 95% 0.0 mm 0 W/m2
00:29 7.8 °C 7.1 °C 1026.0 hPa NNW 8.7 km/h 15.8 km/h 95% 0.0 mm 0 W/m2
00:34 7.8 °C 7.1 °C 1026.0 hPa NNW 6.1 km/h 15.8 km/h 95% 0.0 mm 0 W/m2
00:40 7.7 °C 6.9 °C 1026.0 hPa NNW 7.2 km/h 14.8 km/h 95% 0.0 mm 0 W/m2
00:45 7.5 °C 6.8 °C 1026.0 hPa NNW 9.7 km/h 14.8 km/h 95% 0.0 mm 0 W/m2
00:50 7.5 °C 6.8 °C 1026.0 hPa NNW 8.7 km/h 14.8 km/h 95% 0.0 mm 0 W/m2
00:55 7.3 °C 6.6 °C 1026.0 hPa NNW 5.0 km/h 13.4 km/h 95% 0.0 mm 0 W/m2
01:00 7.3 °C 6.6 °C 1026.0 hPa NNW 8.7 km/h 13.4 km/h 95% 0.0 mm 0 W/m2
01:05 7.2 °C 6.4 °C 1026.0 hPa NW 8.7 km/h 13.4 km/h 95% 0.0 mm 0 W/m2
01:10 7.2 °C 6.6 °C 1026.0 hPa NW 6.1 km/h 13.4 km/h 96% 0.0 mm 0 W/m2
01:16 7.1 °C 6.5 °C 1026.0 hPa NW 8.7 km/h 14.8 km/h 96% 0.0 mm 0 W/m2
01:21 7.1 °C 6.5 °C 1026.0 hPa NNW 9.7 km/h 17.2 km/h 96% 0.0 mm 0 W/m2
01:26 7.4 °C 6.8 °C 1026.0 hPa NNW 3.5 km/h 17.2 km/h 96% 0.0 mm 0 W/m2
01:31 7.2 °C 6.6 °C 1026.0 hPa NNW 7.2 km/h 15.8 km/h 96% 0.0 mm 0 W/m2
01:36 7.2 °C 6.6 °C 1026.0 hPa NNW 8.7 km/h 17.2 km/h 96% 0.0 mm 0 W/m2
01:41 7.2 °C 6.6 °C 1026.0 hPa NNW 6.1 km/h 17.2 km/h 96% 0.0 mm 0 W/m2
01:46 7.8 °C 7.3 °C 1026.0 hPa North 6.1 km/h 13.4 km/h 97% 0.0 mm 0 W/m2
01:51 7.2 °C 6.6 °C 1026.0 hPa North 5.0 km/h 11.1 km/h 96% 0.0 mm 0 W/m2
01:56 7.2 °C 6.6 °C 1025.6 hPa NNW 8.7 km/h 11.1 km/h 96% 0.0 mm 0 W/m2
02:01 7.2 °C 6.6 °C 1026.0 hPa NNW 11.1 km/h 17.2 km/h 96% 0.0 mm 0 W/m2
02:06 7.9 °C 7.3 °C 1025.6 hPa NNW 5.0 km/h 17.2 km/h 96% 0.0 mm 0 W/m2
02:11 7.3 °C 6.6 °C 1025.6 hPa NNW 5.0 km/h 17.2 km/h 95% 0.0 mm 0 W/m2
02:16 7.2 °C 6.4 °C 1025.6 hPa NW 9.7 km/h 12.2 km/h 95% 0.0 mm 0 W/m2
02:21 7.2 °C 6.3 °C 1025.6 hPa NW 5.0 km/h 12.2 km/h 94% 0.0 mm 0 W/m2
02:26 7.3 °C 6.6 °C 1025.6 hPa NNW 7.2 km/h 13.4 km/h 95% 0.0 mm 0 W/m2
02:31 7.1 °C 6.2 °C 1025.6 hPa NW 5.0 km/h 14.8 km/h 94% 0.0 mm 0 W/m2
02:36 7.0 °C 6.1 °C 1025.6 hPa NW 8.7 km/h 14.8 km/h 94% 0.0 mm 0 W/m2
02:41 6.9 °C 6.2 °C 1025.6 hPa NW 7.2 km/h 12.2 km/h 95% 0.0 mm 0 W/m2
02:46 6.7 °C 6.1 °C 1025.3 hPa NNW 6.1 km/h 12.2 km/h 96% 0.0 mm 0 W/m2
03:05 6.8 °C 6.2 °C 1025.3 hPa NNW 7.2 km/h 13.4 km/h 96% 0.0 mm 0 W/m2
03:10 6.8 °C 6.2 °C 1024.9 hPa NNW 6.1 km/h 11.1 km/h 96% 0.0 mm 0 W/m2
03:15 6.6 °C 6.0 °C 1024.9 hPa NNW 6.1 km/h 11.1 km/h 96% 0.0 mm 0 W/m2
03:20 6.6 °C 6.0 °C 1024.9 hPa NNW 3.5 km/h 11.1 km/h 96% 0.0 mm 0 W/m2
03:25 6.5 °C 5.9 °C 1024.9 hPa NNW 6.1 km/h 11.1 km/h 96% 0.0 mm 0 W/m2
03:30 6.6 °C 6.0 °C 1024.9 hPa NNW 1.1 km/h 9.7 km/h 96% 0.0 mm 0 W/m2
03:48 6.5 °C 6.1 °C 1024.9 hPa Calm     97% 0.0 mm 0 W/m2
03:53 6.4 °C 5.9 °C 1024.9 hPa Calm     97% 0.0 mm 0 W/m2
03:58 6.9 °C 6.4 °C 1024.9 hPa Calm     97% 0.0 mm 0 W/m2
04:03 6.5 °C 6.1 °C 1024.9 hPa NNW 1.1 km/h 7.2 km/h 97% 0.0 mm 0 W/m2
04:08 6.5 °C 6.1 °C 1024.6 hPa NNW 5.0 km/h 8.7 km/h 97% 0.0 mm 0 W/m2
04:13 6.5 °C 6.2 °C 1024.6 hPa NNW 5.0 km/h 13.4 km/h 98% 0.0 mm 0 W/m2
04:18 6.4 °C 5.9 °C 1024.6 hPa NNW 6.1 km/h 13.4 km/h 97% 0.0 mm 0 W/m2
04:23 6.2 °C 5.8 °C 1024.9 hPa NNW 6.1 km/h 9.7 km/h 97% 0.0 mm 0 W/m2
04:28 6.1 °C 5.7 °C 1024.6 hPa NW 7.2 km/h 11.1 km/h 97% 0.0 mm 0 W/m2
04:33 6.0 °C 5.6 °C 1024.6 hPa NW 6.1 km/h 11.1 km/h 97% 0.0 mm 0 W/m2
04:38 6.4 °C 5.9 °C 1024.6 hPa NNW 7.2 km/h 11.1 km/h 97% 0.0 mm 0 W/m2
04:43 5.7 °C 5.4 °C 1024.6 hPa NNW 3.5 km/h 9.7 km/h 98% 0.0 mm 0 W/m2
04:49 5.7 °C 5.4 °C 1024.6 hPa NNW 5.0 km/h 9.7 km/h 98% 0.0 mm 0 W/m2
04:54 5.6 °C 5.3 °C 1024.6 hPa NW 6.1 km/h 9.7 km/h 98% 0.0 mm 0 W/m2
05:12 5.7 °C 5.6 °C 1024.6 hPa NNW 2.6 km/h 9.7 km/h 99% 0.0 mm 0 W/m2
05:17 5.7 °C 5.6 °C 1024.9 hPa NNW 5.0 km/h 8.7 km/h 99% 0.0 mm 0 W/m2
05:22 5.6 °C 5.4 °C 1024.6 hPa NW 6.1 km/h 8.7 km/h 99% 0.0 mm 0 W/m2
05:27 5.7 °C 5.6 °C 1024.6 hPa NW 5.0 km/h 8.7 km/h 99% 0.0 mm 0 W/m2
05:32 5.7 °C 5.6 °C 1024.9 hPa NW 3.5 km/h 9.7 km/h 99% 0.0 mm 0 W/m2
05:37 5.7 °C 5.6 °C 1024.6 hPa NNW 2.6 km/h 9.7 km/h 99% 0.0 mm 0 W/m2
05:42 5.7 °C 5.6 °C 1024.6 hPa Calm   7.2 km/h 99% 0.0 mm 0 W/m2
05:47 5.6 °C 5.4 °C 1024.6 hPa Calm   7.2 km/h 99% 0.0 mm 0 W/m2
05:52 5.5 °C 5.3 °C 1024.6 hPa WNW 6.1 km/h 7.2 km/h 99% 0.0 mm 0 W/m2
05:57 5.5 °C 5.3 °C 1024.3 hPa NW 6.1 km/h 8.7 km/h 99% 0.0 mm 0 W/m2
06:02 5.5 °C 5.3 °C 1024.6 hPa NW 7.2 km/h 11.1 km/h 99% 0.0 mm 0 W/m2
06:07 5.5 °C 5.3 °C 1024.6 hPa Calm   11.1 km/h 99% 0.0 mm 0 W/m2
06:12 5.6 °C 5.4 °C 1024.3 hPa Calm   8.7 km/h 99% 0.0 mm 0 W/m2
06:17 5.6 °C 5.4 °C 1024.6 hPa NNW 5.0 km/h 9.7 km/h 99% 0.0 mm 0 W/m2
06:22 5.7 °C 5.6 °C 1024.3 hPa NW 9.7 km/h 12.2 km/h 99% 0.0 mm 0 W/m2
06:27 5.9 °C 5.8 °C 1024.6 hPa NNW 6.1 km/h 15.8 km/h 99% 0.0 mm 0 W/m2
06:32 6.0 °C 5.7 °C 1024.6 hPa NNW 8.7 km/h 15.8 km/h 98% 0.0 mm 0 W/m2
06:37 6.1 °C 5.8 °C 1024.3 hPa NW 5.0 km/h 13.4 km/h 98% 0.0 mm 0 W/m2
06:42 6.1 °C 5.8 °C 1024.6 hPa NNW 6.1 km/h 13.4 km/h 98% 0.0 mm 0 W/m2
06:47 6.2 °C 5.9 °C 1024.6 hPa NNW 7.2 km/h 12.2 km/h 98% 0.0 mm 0 W/m2
06:52 6.2 °C 5.9 °C 1024.6 hPa NNW 7.2 km/h 12.2 km/h 98% 0.0 mm 0 W/m2
06:57 6.2 °C 5.9 °C 1024.6 hPa NNW 5.0 km/h 12.2 km/h 98% 0.0 mm 1 W/m2
07:02 6.3 °C 6.0 °C 1024.6 hPa NW 7.2 km/h 12.2 km/h 98% 0.0 mm 2 W/m2
07:07 6.4 °C 6.1 °C 1024.6 hPa NNW 1.1 km/h 14.8 km/h 98% 0.0 mm 5 W/m2
07:12 6.4 °C 6.1 °C 1024.6 hPa NNW 5.0 km/h 14.8 km/h 98% 0.0 mm 10 W/m2
07:17 6.5 °C 6.2 °C 1024.3 hPa NNW 5.0 km/h 12.2 km/h 98% 0.0 mm 13 W/m2
07:22 6.7 °C 6.4 °C 1024.6 hPa Calm   12.2 km/h 98% 0.0 mm 31 W/m2
07:27 7.1 °C 6.7 °C 1024.9 hPa NNW 1.1 km/h 12.2 km/h 97% 0.0 mm 72 W/m2
07:32 7.5 °C 7.1 °C 1024.6 hPa NNW 5.0 km/h 9.7 km/h 97% 0.0 mm 49 W/m2
07:37 7.5 °C 6.9 °C 1024.9 hPa North 7.2 km/h 9.7 km/h 96% 0.0 mm 62 W/m2
07:42 7.4 °C 6.7 °C 1024.9 hPa NNW 3.5 km/h 11.1 km/h 95% 0.0 mm 44 W/m2
07:47 7.3 °C 6.4 °C 1024.9 hPa NW 3.5 km/h 11.1 km/h 94% 0.0 mm 42 W/m2
07:52 7.4 °C 6.3 °C 1024.9 hPa NNW 5.0 km/h 11.1 km/h 93% 0.0 mm 139 W/m2
07:57 7.8 °C 6.7 °C 1024.9 hPa NNW 9.7 km/h 18.3 km/h 93% 0.0 mm 96 W/m2
08:01 8.0 °C 6.8 °C 1024.9 hPa NNW 8.7 km/h 18.3 km/h 92% 0.0 mm 117 W/m2
08:06 8.4 °C 7.0 °C 1024.9 hPa NNW 6.1 km/h 17.2 km/h 91% 0.0 mm 177 W/m2
08:11 8.7 °C 7.0 °C 1024.9 hPa NNW 6.1 km/h 15.8 km/h 89% 0.0 mm 188 W/m2
08:16 8.9 °C 7.0 °C 1024.9 hPa NNW 7.2 km/h 15.8 km/h 88% 0.0 mm 192 W/m2
08:21 9.2 °C 7.2 °C 1024.9 hPa NW 11.1 km/h 14.8 km/h 87% 0.0 mm 200 W/m2
08:26 9.4 °C 7.2 °C 1024.9 hPa NW 8.7 km/h 18.3 km/h 86% 0.0 mm 210 W/m2
08:31 9.7 °C 7.5 °C 1025.3 hPa NW 7.2 km/h 18.3 km/h 86% 0.0 mm 219 W/m2
08:36 9.9 °C 7.7 °C 1025.3 hPa NW 6.1 km/h 15.8 km/h 86% 0.0 mm 231 W/m2
08:41 10.2 °C 7.6 °C 1025.3 hPa NNW 7.2 km/h 12.2 km/h 84% 0.0 mm 242 W/m2
08:46 10.5 °C 7.9 °C 1025.6 hPa NNW 3.5 km/h 18.3 km/h 84% 0.0 mm 255 W/m2
08:51 10.8 °C 8.1 °C 1025.6 hPa NNW 13.4 km/h 18.3 km/h 83% 0.0 mm 268 W/m2
08:56 11.1 °C 8.2 °C 1025.3 hPa NNW 9.7 km/h 17.2 km/h 82% 0.0 mm 277 W/m2
08:57 11.1 °C 8.2 °C 1025.3 hPa NNW 8.7 km/h 17.2 km/h 82% 0.0 mm 280 W/m2
09:02 11.4 °C 8.4 °C 1025.3 hPa Calm   17.2 km/h 82% 0.0 mm 292 W/m2
09:07 11.8 °C 8.4 °C 1025.6 hPa NNW 5.0 km/h 14.8 km/h 80% 0.0 mm 301 W/m2
09:12 12.3 °C 8.6 °C 1025.3 hPa North 11.1 km/h 15.8 km/h 78% 0.0 mm 308 W/m2
09:17 12.3 °C 8.2 °C 1025.3 hPa NNW 8.7 km/h 19.5 km/h 76% 0.0 mm 310 W/m2
09:22 12.4 °C 8.5 °C 1025.3 hPa NNW 5.0 km/h 19.5 km/h 77% 0.0 mm 312 W/m2
09:27 12.7 °C 8.6 °C 1025.3 hPa NNW 6.1 km/h 14.8 km/h 76% 0.0 mm 274 W/m2
09:32 13.0 °C 8.9 °C 1025.6 hPa North 3.5 km/h 15.8 km/h 76% 0.0 mm 141 W/m2
09:37 13.4 °C 9.3 °C 1025.3 hPa North 7.2 km/h 15.8 km/h 76% 0.0 mm 77 W/m2
09:42 13.6 °C 9.3 °C 1025.3 hPa NNW 7.2 km/h 14.8 km/h 75% 0.0 mm 67 W/m2
09:47 13.8 °C 9.4 °C 1025.6 hPa NNW 7.2 km/h 14.8 km/h 75% 0.0 mm 58 W/m2
09:52 14.4 °C 9.8 °C 1025.3 hPa Calm   13.4 km/h 74% 0.0 mm 55 W/m2
09:57 15.1 °C 10.3 °C 1025.3 hPa NW 7.2 km/h 11.1 km/h 73% 0.0 mm 53 W/m2
10:02 15.4 °C 10.4 °C 1025.6 hPa NW 2.6 km/h 12.2 km/h 72% 0.0 mm 53 W/m2
10:07 15.8 °C 10.6 °C 1025.3 hPa NNW 7.2 km/h 12.2 km/h 71% 0.0 mm 54 W/m2
10:12 16.1 °C 10.8 °C 1025.6 hPa North 5.0 km/h 11.1 km/h 71% 0.0 mm 86 W/m2
10:17 16.9 °C 10.9 °C 1025.6 hPa NNW 5.0 km/h 11.1 km/h 68% 0.0 mm 207 W/m2
10:22 17.1 °C 10.2 °C 1025.6 hPa North 1.1 km/h 13.4 km/h 64% 0.0 mm 324 W/m2
10:27 17.3 °C 10.4 °C 1025.6 hPa North 7.2 km/h 14.8 km/h 64% 0.0 mm 355 W/m2
10:32 17.2 °C 10.3 °C 1025.6 hPa North 5.0 km/h 14.8 km/h 64% 0.0 mm 366 W/m2
10:37 17.3 °C 10.4 °C 1025.6 hPa NNW 7.2 km/h 14.8 km/h 64% 0.0 mm 372 W/m2
10:42 17.3 °C 10.4 °C 1025.6 hPa NNW 3.5 km/h 13.4 km/h 64% 0.0 mm 377 W/m2
10:47 17.5 °C 10.4 °C 1026.0 hPa NNW 7.2 km/h 13.4 km/h 63% 0.0 mm 380 W/m2
10:52 17.6 °C 10.5 °C 1026.0 hPa North 6.1 km/h 13.4 km/h 63% 0.0 mm 382 W/m2
10:57 17.7 °C 10.6 °C 1025.6 hPa North 8.7 km/h 13.4 km/h 63% 0.0 mm 384 W/m2
11:02 18.1 °C 11.2 °C 1026.0 hPa North 7.2 km/h 13.4 km/h 64% 0.0 mm 385 W/m2
11:07 18.3 °C 10.9 °C 1026.0 hPa North 5.0 km/h 12.2 km/h 62% 0.0 mm 386 W/m2
11:12 18.8 °C 11.6 °C 1026.0 hPa North 5.0 km/h 9.7 km/h 63% 0.0 mm 387 W/m2
11:17 18.9 °C 11.4 °C 1026.0 hPa NNW 6.1 km/h 12.2 km/h 62% 0.0 mm 389 W/m2
11:22 19.1 °C 10.9 °C 1026.0 hPa NNW 3.5 km/h 12.2 km/h 59% 0.0 mm 388 W/m2
11:27 20.0 °C 11.5 °C 1026.0 hPa North 5.0 km/h 12.2 km/h 58% 0.0 mm 391 W/m2
11:32 20.0 °C 10.7 °C 1025.6 hPa NNW 6.1 km/h 13.4 km/h 55% 0.0 mm 390 W/m2
11:37 19.9 °C 10.3 °C 1025.6 hPa NNW 6.1 km/h 13.4 km/h 54% 0.0 mm 389 W/m2
11:42 20.0 °C 10.2 °C 1025.6 hPa NW 8.7 km/h 13.4 km/h 53% 0.0 mm 389 W/m2
11:47 20.5 °C 10.6 °C 1025.6 hPa NW 7.2 km/h 13.4 km/h 53% 0.0 mm 389 W/m2
11:52 20.5 °C 9.7 °C 1025.6 hPa NW 9.7 km/h 14.8 km/h 50% 0.0 mm 388 W/m2
11:57 20.6 °C 9.5 °C 1025.6 hPa NNW 6.1 km/h 14.8 km/h 49% 0.0 mm 387 W/m2
12:02 20.6 °C 9.5 °C 1025.6 hPa NNW 7.2 km/h 14.8 km/h 49% 0.0 mm 385 W/m2
12:07 20.7 °C 9.9 °C 1025.3 hPa NW 9.7 km/h 14.8 km/h 50% 0.0 mm 383 W/m2
12:12 20.9 °C 9.8 °C 1025.3 hPa NW 7.2 km/h 14.8 km/h 49% 0.0 mm 380 W/m2
12:17 21.1 °C 9.1 °C 1025.3 hPa NW 5.0 km/h 12.2 km/h 46% 0.0 mm 379 W/m2
12:22 21.4 °C 9.3 °C 1025.3 hPa WNW 2.6 km/h 9.7 km/h 46% 0.0 mm 378 W/m2
12:27 21.9 °C 9.1 °C 1024.9 hPa NW 3.5 km/h 9.7 km/h 44% 0.0 mm 375 W/m2
12:32 21.7 °C 7.9 °C 1024.9 hPa WNW 5.0 km/h 12.2 km/h 41% 0.0 mm 371 W/m2
12:37 22.0 °C 8.5 °C 1025.3 hPa WSW 6.1 km/h 12.2 km/h 42% 0.0 mm 367 W/m2
12:42 22.1 °C 8.9 °C 1024.9 hPa WSW 9.7 km/h 17.2 km/h 43% 0.0 mm 361 W/m2
12:52 21.6 °C 9.8 °C 1024.9 hPa South 7.2 km/h 15.8 km/h 47% 0.0 mm 342 W/m2
12:57 21.5 °C 9.4 °C 1024.9 hPa South 7.2 km/h 13.4 km/h 46% 0.0 mm 331 W/m2
13:02 21.1 °C 9.4 °C 1024.9 hPa South 6.1 km/h 13.4 km/h 47% 0.0 mm 309 W/m2
13:07 21.2 °C 9.4 °C 1024.6 hPa South 8.7 km/h 12.2 km/h 47% 0.0 mm 291 W/m2
13:12 21.2 °C 10.1 °C 1024.9 hPa South 6.1 km/h 12.2 km/h 49% 0.0 mm 260 W/m2
13:17 21.2 °C 9.8 °C 1024.9 hPa South 8.7 km/h 12.2 km/h 48% 0.0 mm 219 W/m2
13:22 20.8 °C 10.0 °C 1024.9 hPa South 6.1 km/h 12.2 km/h 50% 0.0 mm 186 W/m2
13:27 21.6 °C 10.4 °C 1024.6 hPa South 3.5 km/h 11.1 km/h 49% 0.0 mm 149 W/m2
13:32 22.2 °C 10.1 °C 1024.6 hPa SSE 7.2 km/h 9.7 km/h 46% 0.0 mm 117 W/m2
13:37 22.5 °C 10.0 °C 1024.6 hPa SE 2.6 km/h 9.7 km/h 45% 0.0 mm 86 W/m2
13:42 23.0 °C 10.1 °C 1024.6 hPa SE 2.6 km/h 9.7 km/h 44% 0.0 mm 81 W/m2
13:47 23.3 °C 10.1 °C 1024.6 hPa SE 3.5 km/h 8.7 km/h 43% 0.0 mm 90 W/m2
13:52 23.3 °C 9.3 °C 1024.6 hPa SE 3.5 km/h 8.7 km/h 41% 0.0 mm 95 W/m2
13:57 23.8 °C 10.1 °C 1024.6 hPa SE 3.5 km/h 7.2 km/h 42% 0.0 mm 96 W/m2
14:02 23.7 °C 10.1 °C 1024.6 hPa South 5.0 km/h 8.7 km/h 42% 0.0 mm 93 W/m2
14:07 23.3 °C 9.3 °C 1024.6 hPa South 3.5 km/h 8.7 km/h 41% 0.0 mm 88 W/m2
14:12 22.6 °C 9.7 °C 1024.3 hPa SSE 3.5 km/h 9.7 km/h 44% 0.0 mm 84 W/m2
14:17 22.8 °C 11.2 °C 1024.3 hPa SSE 2.6 km/h 9.7 km/h 48% 0.0 mm 80 W/m2
14:22 23.0 °C 11.4 °C 1024.3 hPa Calm   9.7 km/h 48% 0.0 mm 78 W/m2
14:27 23.5 °C 11.2 °C 1024.6 hPa SE 2.6 km/h 8.7 km/h 46% 0.0 mm 77 W/m2
14:32 23.8 °C 11.2 °C 1024.6 hPa SE 2.6 km/h 7.2 km/h 45% 0.0 mm 81 W/m2
14:37 23.5 °C 10.9 °C 1024.3 hPa SE 3.5 km/h 8.7 km/h 45% 0.0 mm 95 W/m2
14:42 23.6 °C 10.3 °C 1024.3 hPa SE 5.0 km/h 8.7 km/h 43% 0.0 mm 93 W/m2
14:47 23.7 °C 10.1 °C 1024.6 hPa SE 5.0 km/h 8.7 km/h 42% 0.0 mm 95 W/m2
14:52 23.5 °C 9.9 °C 1024.3 hPa Calm   7.2 km/h 42% 0.0 mm 140 W/m2
14:57 23.9 °C 9.9 °C 1024.3 hPa SSE 3.5 km/h 7.2 km/h 41% 0.0 mm 179 W/m2
15:02 24.3 °C 10.2 °C 1024.3 hPa SE 1.1 km/h 6.1 km/h 41% 0.0 mm 197 W/m2
15:07 24.2 °C 10.8 °C 1024.3 hPa SE 2.6 km/h 7.2 km/h 43% 0.0 mm 202 W/m2
15:12 24.3 °C 10.9 °C 1024.3 hPa ESE 1.1 km/h 7.2 km/h 43% 0.0 mm 196 W/m2
15:17 24.1 °C 10.4 °C 1024.3 hPa ESE 3.5 km/h 6.1 km/h 42% 0.0 mm 189 W/m2
15:22 24.0 °C 11.0 °C 1024.3 hPa ESE 1.1 km/h 5.0 km/h 44% 0.0 mm 180 W/m2
15:27 23.7 °C 11.1 °C 1024.3 hPa Calm   7.2 km/h 45% 0.0 mm 169 W/m2
15:32 24.8 °C 11.4 °C 1024.3 hPa Calm   7.2 km/h 43% 0.0 mm 159 W/m2
15:37 25.2 °C 11.1 °C 1024.3 hPa Calm   3.5 km/h 41% 0.0 mm 147 W/m2
15:42 25.3 °C 10.0 °C 1024.3 hPa East 2.6 km/h 5.0 km/h 38% 0.0 mm 133 W/m2
15:47 25.1 °C 10.9 °C 1024.3 hPa Calm   5.0 km/h 41% 0.0 mm 120 W/m2
15:52 24.3 °C 9.8 °C 1024.3 hPa East 7.2 km/h 9.7 km/h 40% 0.0 mm 104 W/m2
15:57 23.2 °C 10.6 °C 1024.3 hPa East 2.6 km/h 9.7 km/h 45% 0.0 mm 89 W/m2
16:02 23.1 °C 10.6 °C 1024.3 hPa ENE 2.6 km/h 9.7 km/h 45% 0.0 mm 70 W/m2
16:07 23.2 °C 10.6 °C 1024.3 hPa Calm   6.1 km/h 45% 0.0 mm 60 W/m2
16:12 24.0 °C 11.0 °C 1024.3 hPa Calm   6.1 km/h 44% 0.0 mm 52 W/m2
16:17 23.5 °C 11.6 °C 1024.3 hPa Calm   1.1 km/h 47% 0.0 mm 47 W/m2
16:22 23.6 °C 11.7 °C 1024.3 hPa Calm   2.6 km/h 47% 0.0 mm 46 W/m2
16:27 22.7 °C 10.8 °C 1023.9 hPa NE 1.1 km/h 6.1 km/h 47% 0.0 mm 47 W/m2
16:32 22.2 °C 10.7 °C 1023.9 hPa NE 2.6 km/h 6.1 km/h 48% 0.0 mm 47 W/m2
16:37 21.8 °C 10.9 °C 1023.9 hPa Calm   5.0 km/h 50% 0.0 mm 46 W/m2
16:42 21.7 °C 11.1 °C 1023.9 hPa Calm   3.5 km/h 51% 0.0 mm 40 W/m2
16:47 21.5 °C 11.2 °C 1023.9 hPa Calm   1.1 km/h 52% 0.0 mm 32 W/m2
16:52 20.8 °C 10.9 °C 1023.9 hPa Calm     53% 0.0 mm 17 W/m2
16:57 20.1 °C 10.5 °C 1024.3 hPa Calm     54% 0.0 mm 13 W/m2
17:02 19.1 °C 10.4 °C 1024.3 hPa Calm     57% 0.0 mm 8 W/m2
17:07 17.8 °C 10.4 °C 1024.3 hPa Calm     62% 0.0 mm 4 W/m2
17:24 15.8 °C 10.8 °C 1024.3 hPa Calm   3.5 km/h 72% 0.0 mm 0 W/m2
17:29 15.6 °C 10.8 °C 1024.3 hPa Calm   3.5 km/h 73% 0.0 mm 0 W/m2
17:34 15.4 °C 10.6 °C 1024.3 hPa North 1.1 km/h 2.6 km/h 73% 0.0 mm 0 W/m2
17:39 15.2 °C 10.6 °C 1024.6 hPa Calm   2.6 km/h 74% 0.0 mm 0 W/m2
17:44 15.0 °C 10.6 °C 1024.6 hPa Calm     75% 0.0 mm 0 W/m2
17:49 14.6 °C 10.6 °C 1024.6 hPa Calm     77% 0.0 mm 0 W/m2
17:54 14.4 °C 10.6 °C 1024.6 hPa NNW 2.6 km/h 5.0 km/h 78% 0.0 mm 0 W/m2
17:59 14.0 °C 10.4 °C 1024.6 hPa Calm   5.0 km/h 79% 0.0 mm 0 W/m2
18:04 13.8 °C 10.6 °C 1024.9 hPa Calm   5.0 km/h 81% 0.0 mm 0 W/m2
18:09 13.5 °C 10.5 °C 1024.9 hPa NNW 1.1 km/h 3.5 km/h 82% 0.0 mm 0 W/m2
18:14 13.4 °C 10.8 °C 1024.9 hPa Calm   3.5 km/h 84% 0.0 mm 0 W/m2
18:19 13.4 °C 10.9 °C 1024.9 hPa Calm   3.5 km/h 85% 0.0 mm 0 W/m2
18:24 13.4 °C 11.1 °C 1024.9 hPa Calm     86% 0.0 mm 0 W/m2
18:29 13.2 °C 10.9 °C 1024.9 hPa Calm     86% 0.0 mm 0 W/m2
18:34 13.2 °C 10.9 °C 1024.9 hPa Calm     86% 0.0 mm 0 W/m2
18:40 13.1 °C 10.8 °C 1024.9 hPa Calm   3.5 km/h 86% 0.0 mm 0 W/m2
18:45 13.0 °C 10.7 °C 1024.9 hPa Calm   3.5 km/h 86% 0.0 mm 0 W/m2
18:50 12.9 °C 10.6 °C 1024.9 hPa Calm     86% 0.0 mm 0 W/m2
18:55 12.7 °C 10.4 °C 1024.9 hPa Calm     86% 0.0 mm 0 W/m2
19:00 12.6 °C 10.3 °C 1024.9 hPa Calm     86% 0.0 mm 0 W/m2
19:05 12.5 °C 10.4 °C 1024.9 hPa Calm     87% 0.0 mm 0 W/m2
19:10 12.5 °C 10.4 °C 1025.3 hPa Calm     87% 0.0 mm 0 W/m2
19:15 12.4 °C 10.3 °C 1025.3 hPa Calm     87% 0.0 mm 0 W/m2
19:20 12.3 °C 10.2 °C 1025.3 hPa NW 5.0 km/h 7.2 km/h 87% 0.0 mm 0 W/m2
19:25 12.2 °C 10.3 °C 1025.3 hPa NW 6.1 km/h 7.2 km/h 88% 0.0 mm 0 W/m2
19:30 12.3 °C 10.4 °C 1025.6 hPa NW 5.0 km/h 8.7 km/h 88% 0.0 mm 0 W/m2
19:35 12.4 °C 10.3 °C 1025.6 hPa NW 5.0 km/h 11.1 km/h 87% 0.0 mm 0 W/m2
19:40 12.7 °C 10.6 °C 1025.6 hPa NNW 6.1 km/h 11.1 km/h 87% 0.0 mm 0 W/m2
19:45 13.0 °C 10.7 °C 1026.0 hPa NNW 5.0 km/h 12.2 km/h 86% 0.0 mm 0 W/m2
19:50 13.2 °C 10.7 °C 1025.6 hPa North 1.1 km/h 12.2 km/h 85% 0.0 mm 0 W/m2
19:55 13.3 °C 10.8 °C 1026.0 hPa Calm   12.2 km/h 85% 0.0 mm 0 W/m2
20:00 13.2 °C 10.6 °C 1026.0 hPa North 5.0 km/h 7.2 km/h 84% 0.0 mm 0 W/m2
20:05 13.3 °C 10.7 °C 1026.0 hPa NNW 3.5 km/h 7.2 km/h 84% 0.0 mm 0 W/m2
20:10 13.2 °C 10.6 °C 1026.0 hPa NNW 1.1 km/h 7.2 km/h 84% 0.0 mm 0 W/m2
20:15 13.3 °C 10.7 °C 1026.3 hPa Calm   7.2 km/h 84% 0.0 mm 0 W/m2
20:20 13.2 °C 10.4 °C 1026.0 hPa Calm   7.2 km/h 83% 0.0 mm 0 W/m2
20:25 12.9 °C 10.1 °C 1026.3 hPa Calm   2.6 km/h 83% 0.0 mm 0 W/m2
20:30 12.7 °C 9.9 °C 1026.0 hPa Calm   8.7 km/h 83% 0.0 mm 0 W/m2
20:35 12.5 °C 9.9 °C 1026.0 hPa Calm   8.7 km/h 84% 0.0 mm 0 W/m2
20:40 12.5 °C 10.1 °C 1026.0 hPa Calm     85% 0.0 mm 0 W/m2
20:41 12.5 °C 10.1 °C 1026.0 hPa Calm     85% 0.0 mm 0 W/m2
20:46 12.4 °C 9.9 °C 1026.0 hPa Calm     85% 0.0 mm 0 W/m2
20:51 12.1 °C 9.7 °C 1026.0 hPa Calm     85% 0.0 mm 0 W/m2
20:56 12.0 °C 9.6 °C 1026.0 hPa Calm     85% 0.0 mm 0 W/m2
21:01 11.8 °C 9.7 °C 1026.0 hPa Calm   3.5 km/h 87% 0.0 mm 0 W/m2
21:06 11.6 °C 9.7 °C 1026.0 hPa NW 3.5 km/h 6.1 km/h 88% 0.0 mm 0 W/m2
21:11 11.5 °C 9.8 °C 1026.0 hPa Calm   6.1 km/h 89% 0.0 mm 0 W/m2
21:16 11.5 °C 9.8 °C 1026.0 hPa Calm   6.1 km/h 89% 0.0 mm 0 W/m2
21:21 11.5 °C 9.9 °C 1026.0 hPa Calm     90% 0.0 mm 0 W/m2
21:26 11.5 °C 9.9 °C 1026.0 hPa Calm     90% 0.0 mm 0 W/m2
21:31 11.6 °C 10.0 °C 1026.3 hPa Calm     90% 0.0 mm 0 W/m2
21:36 11.7 °C 10.3 °C 1026.3 hPa NNW 3.5 km/h 8.7 km/h 91% 0.0 mm 0 W/m2
21:41 11.8 °C 10.2 °C 1026.3 hPa NNW 5.0 km/h 11.1 km/h 90% 0.0 mm 0 W/m2
21:46 11.9 °C 10.3 °C 1026.0 hPa NNW 5.0 km/h 11.1 km/h 90% 0.0 mm 0 W/m2
21:51 11.9 °C 10.2 °C 1026.0 hPa NNW 1.1 km/h 13.4 km/h 89% 0.0 mm 0 W/m2
21:56 11.9 °C 10.2 °C 1026.3 hPa NNW 3.5 km/h 13.4 km/h 89% 0.0 mm 0 W/m2
22:01 11.9 °C 10.2 °C 1026.3 hPa North 5.0 km/h 11.1 km/h 89% 0.0 mm 0 W/m2
22:06 12.0 °C 10.1 °C 1026.3 hPa NNW 7.2 km/h 12.2 km/h 88% 0.0 mm 0 W/m2
22:11 12.0 °C 9.9 °C 1026.3 hPa NNW 6.1 km/h 12.2 km/h 87% 0.0 mm 0 W/m2
22:16 11.9 °C 10.0 °C 1026.3 hPa NNW 2.6 km/h 12.2 km/h 88% 0.0 mm 0 W/m2
22:21 11.9 °C 10.0 °C 1026.3 hPa NNW 7.2 km/h 13.4 km/h 88% 0.0 mm 0 W/m2
22:26 12.1 °C 10.0 °C 1026.3 hPa NNW 7.2 km/h 13.4 km/h 87% 0.0 mm 0 W/m2
22:31 12.2 °C 9.9 °C 1026.3 hPa NNW 7.2 km/h 13.4 km/h 86% 0.0 mm 0 W/m2
22:36 12.1 °C 9.8 °C 1026.3 hPa NNW 11.1 km/h 14.8 km/h 86% 0.0 mm 0 W/m2
22:52 11.8 °C 9.9 °C 1026.3 hPa North 6.1 km/h 13.4 km/h 88% 0.0 mm 0 W/m2
22:57 11.7 °C 9.8 °C 1026.6 hPa NNW 7.2 km/h 13.4 km/h 88% 0.0 mm 0 W/m2
23:02 11.5 °C 9.6 °C 1026.3 hPa NNW 8.7 km/h 14.8 km/h 88% 0.0 mm 0 W/m2
23:03 11.5 °C 9.6 °C 1026.3 hPa NNW 8.7 km/h 14.8 km/h 88% 0.0 mm 0 W/m2
23:08 11.5 °C 9.8 °C 1026.3 hPa NNW 1.1 km/h 14.8 km/h 89% 0.0 mm 0 W/m2
23:13 11.4 °C 9.7 °C 1026.3 hPa NNW 6.1 km/h 14.8 km/h 89% 0.0 mm 0 W/m2
23:18 11.3 °C 9.6 °C 1026.3 hPa North 7.2 km/h 9.7 km/h 89% 0.0 mm 0 W/m2
23:23 11.2 °C 9.4 °C 1026.3 hPa NNW 6.1 km/h 11.1 km/h 89% 0.0 mm 0 W/m2
23:28 11.1 °C 9.5 °C 1026.3 hPa NNW 5.0 km/h 11.1 km/h 90% 0.0 mm 0 W/m2
23:33 11.1 °C 9.5 °C 1026.6 hPa NNW 2.6 km/h 11.1 km/h 90% 0.0 mm 0 W/m2
23:38 11.1 °C 9.5 °C 1026.3 hPa NNW 2.6 km/h 11.1 km/h 90% 0.0 mm 0 W/m2
23:43 10.9 °C 9.5 °C 1026.6 hPa NW 6.1 km/h 11.1 km/h 91% 0.0 mm 0 W/m2
23:48 10.7 °C 9.3 °C 1026.6 hPa NNW 2.6 km/h 11.1 km/h 91% 0.0 mm 0 W/m2
23:53 10.5 °C 9.3 °C 1026.6 hPa Calm   8.7 km/h 92% 0.0 mm 0 W/m2
23:58 10.4 °C 9.2 °C 1026.6 hPa Calm   7.2 km/h 92% 0.0 mm 0 W/m2
Northern Hawkes Bay. New Zealand Historic Data
Compliments of Weather Underground - 2.25 mb